sensor_id;sensor_type;location;lat;lon;timestamp;pressure;altitude;pressure_sealevel;temperature;humidity
51849;BME280;38952;51.090;-1.832;2022-07-05T00:06:46;101138.06;;;10.75;88.43
51849;BME280;38952;51.090;-1.832;2022-07-05T00:09:44;101162.25;;;10.83;88.16
51849;BME280;38952;51.090;-1.832;2022-07-05T00:12:10;101173.53;;;10.87;88.64
51849;BME280;38952;51.090;-1.832;2022-07-05T00:14:38;101178.16;;;10.86;88.76
51849;BME280;38952;51.090;-1.832;2022-07-05T00:17:06;101176.09;;;10.76;88.40
51849;BME280;38952;51.090;-1.832;2022-07-05T00:19:31;101161.25;;;10.72;88.80
51849;BME280;38952;51.090;-1.832;2022-07-05T00:22:07;101184.13;;;10.83;88.88
51849;BME280;38952;51.090;-1.832;2022-07-05T00:24:35;101182.50;;;10.82;88.90
51849;BME280;38952;51.090;-1.832;2022-07-05T00:27:01;101186.31;;;10.81;88.63
51849;BME280;38952;51.090;-1.832;2022-07-05T00:29:38;101164.16;;;10.65;89.34
51849;BME280;38952;51.090;-1.832;2022-07-05T00:32:08;101176.25;;;10.70;89.15
51849;BME280;38952;51.090;-1.832;2022-07-05T00:34:34;101185.38;;;10.75;88.79
51849;BME280;38952;51.090;-1.832;2022-07-05T00:37:19;101180.66;;;10.71;89.09
51849;BME280;38952;51.090;-1.832;2022-07-05T00:39:52;101171.69;;;10.58;89.43
51849;BME280;38952;51.090;-1.832;2022-07-05T00:42:18;101173.34;;;10.59;89.18
51849;BME280;38952;51.090;-1.832;2022-07-05T00:44:43;101177.31;;;10.69;89.37
51849;BME280;38952;51.090;-1.832;2022-07-05T00:47:12;101183.31;;;10.65;89.84
51849;BME280;38952;51.090;-1.832;2022-07-05T00:49:50;101194.59;;;10.69;89.51
51849;BME280;38952;51.090;-1.832;2022-07-05T00:52:24;101173.84;;;10.56;89.70
51849;BME280;38952;51.090;-1.832;2022-07-05T00:54:59;101186.63;;;10.68;89.88
51849;BME280;38952;51.090;-1.832;2022-07-05T00:57:32;101165.91;;;10.55;90.09
51849;BME280;38952;51.090;-1.832;2022-07-05T01:00:08;101171.13;;;10.56;90.00
51849;BME280;38952;51.090;-1.832;2022-07-05T01:02:44;101178.81;;;10.59;90.19
51849;BME280;38952;51.090;-1.832;2022-07-05T01:05:12;101157.28;;;10.46;90.54
51849;BME280;38952;51.090;-1.832;2022-07-05T01:07:37;101178.97;;;10.53;90.12
51849;BME280;38952;51.090;-1.832;2022-07-05T01:10:03;101174.84;;;10.50;90.13
51849;BME280;38952;51.090;-1.832;2022-07-05T01:12:30;101156.59;;;10.39;90.59
51849;BME280;38952;51.090;-1.832;2022-07-05T01:14:56;101172.50;;;10.42;90.24
51849;BME280;38952;51.090;-1.832;2022-07-05T01:17:24;101173.00;;;10.39;90.40
51849;BME280;38952;51.090;-1.832;2022-07-05T01:19:52;101169.97;;;10.23;90.32
51849;BME280;38952;51.090;-1.832;2022-07-05T01:22:24;101160.63;;;10.19;90.46
51849;BME280;38952;51.090;-1.832;2022-07-05T01:24:59;101163.00;;;10.16;90.80
51849;BME280;38952;51.090;-1.832;2022-07-05T01:27:27;101154.16;;;9.96;90.83
51849;BME280;38952;51.090;-1.832;2022-07-05T01:30:11;101172.56;;;10.01;90.77
51849;BME280;38952;51.090;-1.832;2022-07-05T01:32:48;101168.69;;;9.85;90.80
51849;BME280;38952;51.090;-1.832;2022-07-05T01:35:16;101157.56;;;9.75;91.13
51849;BME280;38952;51.090;-1.832;2022-07-05T01:37:49;101162.94;;;9.70;91.19
51849;BME280;38952;51.090;-1.832;2022-07-05T01:40:28;101173.47;;;9.78;91.34
51849;BME280;38952;51.090;-1.832;2022-07-05T01:43:09;101149.09;;;9.59;92.10
51849;BME280;38952;51.090;-1.832;2022-07-05T01:49:06;101154.44;;;9.54;92.80
51849;BME280;38952;51.090;-1.832;2022-07-05T01:51:41;101152.75;;;9.53;93.07
51849;BME280;38952;51.090;-1.832;2022-07-05T01:54:07;101160.13;;;9.53;93.57
51849;BME280;38952;51.090;-1.832;2022-07-05T01:56:38;101167.50;;;9.52;93.15
51849;BME280;38952;51.090;-1.832;2022-07-05T01:59:05;101159.91;;;9.42;93.62
51849;BME280;38952;51.090;-1.832;2022-07-05T02:01:45;101164.56;;;9.42;93.44
51849;BME280;38952;51.090;-1.832;2022-07-05T02:04:13;101168.81;;;9.38;94.00
51849;BME280;38952;51.090;-1.832;2022-07-05T02:06:41;101161.69;;;9.37;94.22
51849;BME280;38952;51.090;-1.832;2022-07-05T02:09:17;101147.25;;;9.24;94.45
51849;BME280;38952;51.090;-1.832;2022-07-05T02:11:42;101166.94;;;9.26;94.79
51849;BME280;38952;51.090;-1.832;2022-07-05T02:14:08;101152.00;;;9.17;94.78
51849;BME280;38952;51.090;-1.832;2022-07-05T02:16:36;101159.72;;;9.20;94.70
51849;BME280;38952;51.090;-1.832;2022-07-05T02:19:03;101151.31;;;9.10;94.79
51849;BME280;38952;51.090;-1.832;2022-07-05T02:21:29;101171.44;;;9.21;95.11
51849;BME280;38952;51.090;-1.832;2022-07-05T02:23:55;101166.81;;;9.09;94.82
51849;BME280;38952;51.090;-1.832;2022-07-05T02:26:20;101156.03;;;9.03;94.83
51849;BME280;38952;51.090;-1.832;2022-07-05T02:28:49;101155.91;;;8.98;95.16
51849;BME280;38952;51.090;-1.832;2022-07-05T02:34:25;101170.75;;;9.02;94.83
51849;BME280;38952;51.090;-1.832;2022-07-05T02:36:54;101158.31;;;8.94;94.43
51849;BME280;38952;51.090;-1.832;2022-07-05T02:39:19;101150.34;;;8.93;94.63
51849;BME280;38952;51.090;-1.832;2022-07-05T02:41:45;101177.06;;;9.02;94.47
51849;BME280;38952;51.090;-1.832;2022-07-05T02:44:10;101160.31;;;8.99;94.62
51849;BME280;38952;51.090;-1.832;2022-07-05T02:46:38;101164.09;;;8.98;93.90
51849;BME280;38952;51.090;-1.832;2022-07-05T02:49:06;101154.50;;;8.95;94.07
51849;BME280;38952;51.090;-1.832;2022-07-05T02:51:42;101164.09;;;8.98;93.56
51849;BME280;38952;51.090;-1.832;2022-07-05T02:54:07;101155.81;;;8.93;93.75
51849;BME280;38952;51.090;-1.832;2022-07-05T02:56:33;101175.38;;;9.01;93.94
51849;BME280;38952;51.090;-1.832;2022-07-05T02:58:58;101162.81;;;8.88;93.51
51849;BME280;38952;51.090;-1.832;2022-07-05T03:01:24;101171.13;;;8.94;93.56
51849;BME280;38952;51.090;-1.832;2022-07-05T03:03:49;101172.66;;;8.89;93.61
51849;BME280;38952;51.090;-1.832;2022-07-05T03:06:15;101156.78;;;8.86;93.08
51849;BME280;38952;51.090;-1.832;2022-07-05T03:08:41;101165.78;;;8.87;93.21
51849;BME280;38952;51.090;-1.832;2022-07-05T03:11:07;101164.00;;;8.93;93.26
51849;BME280;38952;51.090;-1.832;2022-07-05T03:13:32;101167.06;;;8.96;92.89
51849;BME280;38952;51.090;-1.832;2022-07-05T03:15:57;101171.22;;;8.99;92.89
51849;BME280;38952;51.090;-1.832;2022-07-05T03:18:23;101168.72;;;8.97;92.52
51849;BME280;38952;51.090;-1.832;2022-07-05T03:20:48;101161.25;;;8.93;92.57
51849;BME280;38952;51.090;-1.832;2022-07-05T03:23:14;101160.66;;;8.90;92.52
51849;BME280;38952;51.090;-1.832;2022-07-05T03:25:39;101164.22;;;8.91;92.47
51849;BME280;38952;51.090;-1.832;2022-07-05T03:28:05;101168.41;;;8.94;92.77
51849;BME280;38952;51.090;-1.832;2022-07-05T03:30:30;101168.84;;;8.90;92.42
51849;BME280;38952;51.090;-1.832;2022-07-05T03:32:55;101179.75;;;8.90;91.89
51849;BME280;38952;51.090;-1.832;2022-07-05T03:35:21;101172.41;;;8.91;92.31
51849;BME280;38952;51.090;-1.832;2022-07-05T03:37:46;101171.00;;;8.88;91.95
51849;BME280;38952;51.090;-1.832;2022-07-05T03:40:12;101176.44;;;8.88;91.59
51849;BME280;38952;51.090;-1.832;2022-07-05T03:42:37;101171.94;;;8.82;91.71
51849;BME280;38952;51.090;-1.832;2022-07-05T03:45:03;101176.31;;;8.83;91.38
51849;BME280;38952;51.090;-1.832;2022-07-05T03:47:29;101188.78;;;8.79;91.74
51849;BME280;38952;51.090;-1.832;2022-07-05T03:49:57;101178.34;;;8.76;91.93
51849;BME280;38952;51.090;-1.832;2022-07-05T03:52:25;101187.81;;;8.73;91.77
51849;BME280;38952;51.090;-1.832;2022-07-05T03:54:50;101183.06;;;8.69;92.09
51849;BME280;38952;51.090;-1.832;2022-07-05T03:57:15;101181.75;;;8.71;91.51
51849;BME280;38952;51.090;-1.832;2022-07-05T03:59:41;101190.88;;;8.77;91.82
51849;BME280;38952;51.090;-1.832;2022-07-05T04:02:07;101190.66;;;8.79;92.02
51849;BME280;38952;51.090;-1.832;2022-07-05T04:04:32;101191.97;;;8.76;91.27
51849;BME280;38952;51.090;-1.832;2022-07-05T04:06:58;101179.25;;;8.70;91.60
51849;BME280;38952;51.090;-1.832;2022-07-05T04:09:25;101195.75;;;8.75;91.55
51849;BME280;38952;51.090;-1.832;2022-07-05T04:12:14;101187.44;;;8.70;91.12
51849;BME280;38952;51.090;-1.832;2022-07-05T04:14:45;101176.91;;;8.62;91.73
51849;BME280;38952;51.090;-1.832;2022-07-05T04:17:13;101182.47;;;8.67;91.40
51849;BME280;38952;51.090;-1.832;2022-07-05T04:19:41;101207.25;;;8.77;91.27
51849;BME280;38952;51.090;-1.832;2022-07-05T04:22:21;101198.47;;;8.75;91.19
51849;BME280;38952;51.090;-1.832;2022-07-05T04:24:47;101190.78;;;8.72;90.94
51849;BME280;38952;51.090;-1.832;2022-07-05T04:27:31;101191.75;;;8.78;90.79
51849;BME280;38952;51.090;-1.832;2022-07-05T04:29:59;101194.22;;;8.79;91.02
51849;BME280;38952;51.090;-1.832;2022-07-05T04:32:24;101200.84;;;8.83;90.95
51849;BME280;38952;51.090;-1.832;2022-07-05T04:35:00;101191.97;;;8.76;90.32
51849;BME280;38952;51.090;-1.832;2022-07-05T04:37:27;101216.66;;;8.93;90.57
51849;BME280;38952;51.090;-1.832;2022-07-05T04:39:57;101205.88;;;8.86;90.60
51849;BME280;38952;51.090;-1.832;2022-07-05T04:42:25;101207.97;;;8.96;90.18
51849;BME280;38952;51.090;-1.832;2022-07-05T04:44:51;101207.16;;;8.96;90.10
51849;BME280;38952;51.090;-1.832;2022-07-05T04:47:16;101205.97;;;9.03;90.10
51849;BME280;38952;51.090;-1.832;2022-07-05T04:49:42;101218.78;;;9.15;89.65
51849;BME280;38952;51.090;-1.832;2022-07-05T04:52:15;101203.13;;;9.10;89.60
51849;BME280;38952;51.090;-1.832;2022-07-05T04:54:40;101217.03;;;9.20;89.24
51849;BME280;38952;51.090;-1.832;2022-07-05T04:57:11;101211.56;;;9.20;89.15
51849;BME280;38952;51.090;-1.832;2022-07-05T04:59:39;101214.53;;;9.19;89.02
51849;BME280;38952;51.090;-1.832;2022-07-05T05:02:05;101218.69;;;9.33;88.48
51849;BME280;38952;51.090;-1.832;2022-07-05T05:04:32;101238.97;;;9.49;88.45
51849;BME280;38952;51.090;-1.832;2022-07-05T05:06:58;101224.84;;;9.52;88.36
51849;BME280;38952;51.090;-1.832;2022-07-05T05:09:24;101235.50;;;9.66;87.87
51849;BME280;38952;51.090;-1.832;2022-07-05T05:12:12;101242.16;;;9.70;87.86
51849;BME280;38952;51.090;-1.832;2022-07-05T05:14:44;101247.59;;;9.70;87.47
51849;BME280;38952;51.090;-1.832;2022-07-05T05:17:53;101250.91;;;9.72;87.80
51849;BME280;38952;51.090;-1.832;2022-07-05T05:20:21;101237.16;;;9.67;86.97
51849;BME280;38952;51.090;-1.832;2022-07-05T05:22:47;101252.59;;;9.73;86.81
51849;BME280;38952;51.090;-1.832;2022-07-05T05:25:12;101229.34;;;9.58;86.41
51849;BME280;38952;51.090;-1.832;2022-07-05T05:27:48;101244.41;;;9.73;86.20
51849;BME280;38952;51.090;-1.832;2022-07-05T05:30:24;101248.78;;;9.86;86.93
51849;BME280;38952;51.090;-1.832;2022-07-05T05:32:49;101256.44;;;10.01;85.91
51849;BME280;38952;51.090;-1.832;2022-07-05T05:35:19;101240.63;;;10.03;86.22
51849;BME280;38952;51.090;-1.832;2022-07-05T05:37:50;101257.44;;;10.23;85.88
51849;BME280;38952;51.090;-1.832;2022-07-05T05:40:16;101258.72;;;10.33;85.88
51849;BME280;38952;51.090;-1.832;2022-07-05T05:42:45;101257.84;;;10.44;85.59
51849;BME280;38952;51.090;-1.832;2022-07-05T05:45:10;101257.56;;;10.57;84.64
51849;BME280;38952;51.090;-1.832;2022-07-05T05:47:51;101269.84;;;10.72;85.04
51849;BME280;38952;51.090;-1.832;2022-07-05T05:50:34;101270.50;;;10.79;84.86
51849;BME280;38952;51.090;-1.832;2022-07-05T05:53:00;101275.69;;;10.92;84.20
51849;BME280;38952;51.090;-1.832;2022-07-05T05:55:27;101264.75;;;10.92;83.98
51849;BME280;38952;51.090;-1.832;2022-07-05T05:57:55;101271.53;;;11.07;83.67
51849;BME280;38952;51.090;-1.832;2022-07-05T06:00:23;101276.19;;;11.23;83.62
51849;BME280;38952;51.090;-1.832;2022-07-05T06:02:50;101272.69;;;11.28;83.88
51849;BME280;38952;51.090;-1.832;2022-07-05T06:05:17;101261.56;;;11.34;83.11
51849;BME280;38952;51.090;-1.832;2022-07-05T06:10:15;101278.31;;;11.55;82.67
51849;BME280;38952;51.090;-1.832;2022-07-05T06:13:07;101267.94;;;11.57;82.27
51849;BME280;38952;51.090;-1.832;2022-07-05T06:15:34;101270.25;;;11.65;81.65
51849;BME280;38952;51.090;-1.832;2022-07-05T06:20:52;101280.88;;;11.84;81.61
51849;BME280;38952;51.090;-1.832;2022-07-05T06:23:18;101279.41;;;11.93;81.56
51849;BME280;38952;51.090;-1.832;2022-07-05T06:25:46;101288.34;;;12.05;81.05
51849;BME280;38952;51.090;-1.832;2022-07-05T06:28:13;101276.03;;;12.08;80.37
51849;BME280;38952;51.090;-1.832;2022-07-05T06:30:39;101286.31;;;12.18;80.29
51849;BME280;38952;51.090;-1.832;2022-07-05T06:33:05;101301.84;;;12.34;79.69
51849;BME280;38952;51.090;-1.832;2022-07-05T06:35:31;101295.13;;;12.47;79.96
51849;BME280;38952;51.090;-1.832;2022-07-05T06:38:02;101299.81;;;12.74;79.67
51849;BME280;38952;51.090;-1.832;2022-07-05T06:40:29;101303.75;;;13.16;78.22
51849;BME280;38952;51.090;-1.832;2022-07-05T06:42:57;101313.47;;;13.66;77.10
51849;BME280;38952;51.090;-1.832;2022-07-05T06:45:23;101303.81;;;14.06;75.68
51849;BME280;38952;51.090;-1.832;2022-07-05T06:48:07;101311.34;;;14.37;74.17
51849;BME280;38952;51.090;-1.832;2022-07-05T06:50:35;101312.22;;;14.53;73.47
51849;BME280;38952;51.090;-1.832;2022-07-05T06:53:01;101316.66;;;14.59;73.65
51849;BME280;38952;51.090;-1.832;2022-07-05T06:55:27;101320.03;;;14.66;74.12
51849;BME280;38952;51.090;-1.832;2022-07-05T06:58:11;101309.81;;;14.66;73.25
51849;BME280;38952;51.090;-1.832;2022-07-05T07:00:40;101312.53;;;14.56;73.98
51849;BME280;38952;51.090;-1.832;2022-07-05T07:03:14;101317.47;;;14.49;74.58
51849;BME280;38952;51.090;-1.832;2022-07-05T07:05:40;101301.72;;;14.39;74.90
51849;BME280;38952;51.090;-1.832;2022-07-05T07:08:05;101316.09;;;14.52;74.69
51849;BME280;38952;51.090;-1.832;2022-07-05T07:10:49;101301.19;;;14.42;74.49
51849;BME280;38952;51.090;-1.832;2022-07-05T07:13:35;101305.63;;;14.48;74.57
51849;BME280;38952;51.090;-1.832;2022-07-05T07:16:07;101311.69;;;14.56;74.27
51849;BME280;38952;51.090;-1.832;2022-07-05T07:18:33;101332.69;;;14.77;74.17
51849;BME280;38952;51.090;-1.832;2022-07-05T07:21:10;101322.25;;;14.79;73.75
51849;BME280;38952;51.090;-1.832;2022-07-05T07:23:44;101318.97;;;14.93;73.43
51849;BME280;38952;51.090;-1.832;2022-07-05T07:26:10;101338.78;;;15.15;72.91
51849;BME280;38952;51.090;-1.832;2022-07-05T07:28:35;101333.84;;;15.28;72.72
51849;BME280;38952;51.090;-1.832;2022-07-05T07:31:04;101327.50;;;15.32;72.20
51849;BME280;38952;51.090;-1.832;2022-07-05T07:33:29;101322.00;;;15.27;71.65
51849;BME280;38952;51.090;-1.832;2022-07-05T07:35:55;101336.03;;;15.36;71.74
51849;BME280;38952;51.090;-1.832;2022-07-05T07:38:20;101337.16;;;15.40;71.60
51849;BME280;38952;51.090;-1.832;2022-07-05T07:40:46;101333.84;;;15.38;71.40
51849;BME280;38952;51.090;-1.832;2022-07-05T07:43:12;101324.50;;;15.39;71.31
51849;BME280;38952;51.090;-1.832;2022-07-05T07:45:37;101320.59;;;15.40;71.20
51849;BME280;38952;51.090;-1.832;2022-07-05T07:48:04;101332.75;;;15.49;71.45
51849;BME280;38952;51.090;-1.832;2022-07-05T07:50:30;101335.50;;;15.60;71.26
51849;BME280;38952;51.090;-1.832;2022-07-05T07:52:56;101319.22;;;15.63;71.02
51849;BME280;38952;51.090;-1.832;2022-07-05T07:55:21;101334.94;;;15.83;70.65
51849;BME280;38952;51.090;-1.832;2022-07-05T07:57:47;101336.56;;;15.95;70.24
51849;BME280;38952;51.090;-1.832;2022-07-05T08:00:12;101349.72;;;16.18;70.04
51849;BME280;38952;51.090;-1.832;2022-07-05T08:02:38;101345.75;;;16.45;69.00
51849;BME280;38952;51.090;-1.832;2022-07-05T08:05:04;101341.78;;;16.62;66.25
51849;BME280;38952;51.090;-1.832;2022-07-05T08:07:30;101352.75;;;16.77;65.59
51849;BME280;38952;51.090;-1.832;2022-07-05T08:09:55;101345.94;;;17.09;65.47
51849;BME280;38952;51.090;-1.832;2022-07-05T08:12:21;101344.25;;;17.13;63.91
51849;BME280;38952;51.090;-1.832;2022-07-05T08:14:46;101350.78;;;17.27;63.88
51849;BME280;38952;51.090;-1.832;2022-07-05T08:17:12;101348.25;;;17.31;62.23
51849;BME280;38952;51.090;-1.832;2022-07-05T08:19:38;101355.06;;;17.44;62.25
51849;BME280;38952;51.090;-1.832;2022-07-05T08:22:22;101349.53;;;17.44;61.64
51849;BME280;38952;51.090;-1.832;2022-07-05T08:24:49;101351.44;;;17.49;61.78
51849;BME280;38952;51.090;-1.832;2022-07-05T08:27:14;101360.22;;;17.56;61.41
51849;BME280;38952;51.090;-1.832;2022-07-05T08:29:41;101350.25;;;17.84;61.95
51849;BME280;38952;51.090;-1.832;2022-07-05T08:32:07;101363.81;;;18.15;60.39
51849;BME280;38952;51.090;-1.832;2022-07-05T08:34:36;101357.56;;;18.28;59.38
51849;BME280;38952;51.090;-1.832;2022-07-05T08:37:09;101361.03;;;18.58;59.56
51849;BME280;38952;51.090;-1.832;2022-07-05T08:39:35;101358.69;;;18.71;56.93
51849;BME280;38952;51.090;-1.832;2022-07-05T08:42:00;101365.56;;;18.92;56.67
51849;BME280;38952;51.090;-1.832;2022-07-05T08:44:30;101359.66;;;19.18;55.59
51849;BME280;38952;51.090;-1.832;2022-07-05T08:47:02;101350.81;;;19.49;54.37
51849;BME280;38952;51.090;-1.832;2022-07-05T08:49:30;101366.16;;;20.07;53.41
51849;BME280;38952;51.090;-1.832;2022-07-05T08:51:58;101358.31;;;20.37;52.97
51849;BME280;38952;51.090;-1.832;2022-07-05T08:54:25;101359.78;;;20.34;49.84
51849;BME280;38952;51.090;-1.832;2022-07-05T08:56:50;101362.03;;;20.32;48.38
51849;BME280;38952;51.090;-1.832;2022-07-05T08:59:16;101372.03;;;20.33;49.40
51849;BME280;38952;51.090;-1.832;2022-07-05T09:01:45;101361.00;;;20.70;48.78
51849;BME280;38952;51.090;-1.832;2022-07-05T09:04:11;101369.94;;;21.63;48.65
51849;BME280;38952;51.090;-1.832;2022-07-05T09:06:39;101374.53;;;21.99;45.67
51849;BME280;38952;51.090;-1.832;2022-07-05T09:09:05;101360.84;;;21.79;45.37
51849;BME280;38952;51.090;-1.832;2022-07-05T09:11:41;101375.38;;;21.68;46.51
51849;BME280;38952;51.090;-1.832;2022-07-05T09:14:25;101372.97;;;21.52;45.59
51849;BME280;38952;51.090;-1.832;2022-07-05T09:16:51;101378.13;;;21.22;44.95
51849;BME280;38952;51.090;-1.832;2022-07-05T09:19:18;101374.16;;;20.78;45.78
51849;BME280;38952;51.090;-1.832;2022-07-05T09:21:44;101377.03;;;20.87;46.27
51849;BME280;38952;51.090;-1.832;2022-07-05T09:24:11;101380.47;;;21.06;45.37
51849;BME280;38952;51.090;-1.832;2022-07-05T09:26:37;101386.25;;;20.96;46.10
51849;BME280;38952;51.090;-1.832;2022-07-05T09:49:48;101384.31;;;22.94;43.52
51849;BME280;38952;51.090;-1.832;2022-07-05T09:56:24;101391.84;;;23.72;41.73
51849;BME280;38952;51.090;-1.832;2022-07-05T09:58:54;101388.94;;;22.90;41.48
51849;BME280;38952;51.090;-1.832;2022-07-05T10:01:34;101396.03;;;22.38;43.19
51849;BME280;38952;51.090;-1.832;2022-07-05T10:04:12;101391.34;;;22.25;43.23
51849;BME280;38952;51.090;-1.832;2022-07-05T10:06:39;101389.97;;;22.36;43.49
51849;BME280;38952;51.090;-1.832;2022-07-05T10:09:05;101397.91;;;22.69;42.75
51849;BME280;38952;51.090;-1.832;2022-07-05T10:11:31;101399.75;;;23.00;42.21
51849;BME280;38952;51.090;-1.832;2022-07-05T10:13:58;101397.25;;;22.63;41.75
51849;BME280;38952;51.090;-1.832;2022-07-05T10:16:23;101384.72;;;22.03;43.16
51849;BME280;38952;51.090;-1.832;2022-07-05T10:19:15;101387.63;;;21.67;44.45
51849;BME280;38952;51.090;-1.832;2022-07-05T10:21:41;101400.22;;;21.41;45.36
51849;BME280;38952;51.090;-1.832;2022-07-05T10:24:16;101399.69;;;21.17;46.38
51849;BME280;38952;51.090;-1.832;2022-07-05T10:27:06;101399.06;;;20.83;47.08
51849;BME280;38952;51.090;-1.832;2022-07-05T10:29:47;101397.00;;;20.61;48.11
51849;BME280;38952;51.090;-1.832;2022-07-05T10:32:22;101388.66;;;20.61;48.12
51849;BME280;38952;51.090;-1.832;2022-07-05T10:34:49;101384.03;;;20.70;47.29
51849;BME280;38952;51.090;-1.832;2022-07-05T10:37:18;101391.03;;;21.18;47.36
51849;BME280;38952;51.090;-1.832;2022-07-05T10:39:52;101386.44;;;21.82;45.83
51849;BME280;38952;51.090;-1.832;2022-07-05T10:42:21;101395.38;;;22.41;45.41
51849;BME280;38952;51.090;-1.832;2022-07-05T10:44:47;101401.75;;;23.43;43.57
51849;BME280;38952;51.090;-1.832;2022-07-05T10:47:12;101408.44;;;24.25;42.45
51849;BME280;38952;51.090;-1.832;2022-07-05T10:49:39;101403.28;;;24.74;40.21
51849;BME280;38952;51.090;-1.832;2022-07-05T10:52:21;101397.06;;;24.89;39.68
51849;BME280;38952;51.090;-1.832;2022-07-05T10:57:42;101406.34;;;25.78;38.70
51849;BME280;38952;51.090;-1.832;2022-07-05T11:00:09;101399.66;;;26.16;35.86
51849;BME280;38952;51.090;-1.832;2022-07-05T11:02:36;101399.91;;;26.23;35.20
51849;BME280;38952;51.090;-1.832;2022-07-05T11:05:02;101402.00;;;26.26;35.29
51849;BME280;38952;51.090;-1.832;2022-07-05T11:07:59;101409.81;;;26.21;36.33
51849;BME280;38952;51.090;-1.832;2022-07-05T11:10:25;101406.22;;;26.20;37.03
51849;BME280;38952;51.090;-1.832;2022-07-05T11:12:50;101411.59;;;26.38;36.22
51849;BME280;38952;51.090;-1.832;2022-07-05T11:15:16;101410.41;;;26.02;36.22
51849;BME280;38952;51.090;-1.832;2022-07-05T11:17:44;101420.00;;;26.01;37.42
51849;BME280;38952;51.090;-1.832;2022-07-05T11:23:37;101405.84;;;26.34;35.80
51849;BME280;38952;51.090;-1.832;2022-07-05T11:26:15;101400.75;;;27.71;35.07
51849;BME280;38952;51.090;-1.832;2022-07-05T11:35:28;101398.50;;;26.29;33.91
51849;BME280;38952;51.090;-1.832;2022-07-05T11:38:28;101403.75;;;25.73;35.91
51849;BME280;38952;51.090;-1.832;2022-07-05T11:41:16;101394.97;;;25.50;36.05
51849;BME280;38952;51.090;-1.832;2022-07-05T11:44:01;101393.50;;;25.77;35.83
51849;BME280;38952;51.090;-1.832;2022-07-05T11:46:34;101418.75;;;27.13;34.73
51849;BME280;38952;51.090;-1.832;2022-07-05T11:49:22;101401.66;;;28.54;32.21
51849;BME280;38952;51.090;-1.832;2022-07-05T11:52:01;101407.75;;;29.47;31.11
51849;BME280;38952;51.090;-1.832;2022-07-05T11:57:53;101393.81;;;32.69;26.25
51849;BME280;38952;51.090;-1.832;2022-07-05T12:00:35;101388.19;;;32.76;25.94
51849;BME280;38952;51.090;-1.832;2022-07-05T12:03:14;101389.81;;;34.16;25.10
51849;BME280;38952;51.090;-1.832;2022-07-05T12:05:41;101406.84;;;37.60;22.00
51849;BME280;38952;51.090;-1.832;2022-07-05T12:08:41;101420.84;;;40.06;19.90
51849;BME280;38952;51.090;-1.832;2022-07-05T12:11:15;101392.31;;;39.49;19.68
51849;BME280;38952;51.090;-1.832;2022-07-05T12:13:59;101393.22;;;37.13;22.12
51849;BME280;38952;51.090;-1.832;2022-07-05T12:16:24;101412.34;;;35.13;23.08
51849;BME280;38952;51.090;-1.832;2022-07-05T12:19:02;101403.59;;;34.39;24.36
51849;BME280;38952;51.090;-1.832;2022-07-05T12:21:30;101372.31;;;37.27;22.42
51849;BME280;38952;51.090;-1.832;2022-07-05T12:24:24;101411.63;;;42.79;18.05
51849;BME280;38952;51.090;-1.832;2022-07-05T12:27:11;101405.47;;;46.78;15.40
51849;BME280;38952;51.090;-1.832;2022-07-05T12:29:37;101388.59;;;47.92;11.20
51849;BME280;38952;51.090;-1.832;2022-07-05T12:35:32;101378.50;;;39.80;17.14
51849;BME280;38952;51.090;-1.832;2022-07-05T12:38:49;101356.38;;;36.64;19.69
51849;BME280;38952;51.090;-1.832;2022-07-05T12:41:24;101363.84;;;34.39;21.75
51849;BME280;38952;51.090;-1.832;2022-07-05T12:43:54;101375.75;;;32.32;23.96
51849;BME280;38952;51.090;-1.832;2022-07-05T12:46:34;101360.59;;;30.94;25.65
51849;BME280;38952;51.090;-1.832;2022-07-05T12:49:06;101364.19;;;30.91;26.56
51849;BME280;38952;51.090;-1.832;2022-07-05T12:51:36;101353.06;;;31.73;25.51
51849;BME280;38952;51.090;-1.832;2022-07-05T12:54:03;101357.03;;;32.13;24.36
51849;BME280;38952;51.090;-1.832;2022-07-05T12:56:51;101363.44;;;31.62;24.97
51849;BME280;38952;51.090;-1.832;2022-07-05T12:59:36;101359.56;;;32.88;24.97
51849;BME280;38952;51.090;-1.832;2022-07-05T13:02:02;101365.31;;;36.21;21.08
51849;BME280;38952;51.090;-1.832;2022-07-05T13:04:28;101367.13;;;35.47;21.17
51849;BME280;38952;51.090;-1.832;2022-07-05T13:07:02;101354.97;;;33.97;22.72
51849;BME280;38952;51.090;-1.832;2022-07-05T13:12:14;101362.94;;;31.19;26.11
51849;BME280;38952;51.090;-1.832;2022-07-05T13:14:42;101351.84;;;30.19;27.87
51849;BME280;38952;51.090;-1.832;2022-07-05T13:17:12;101347.97;;;29.81;28.76
51849;BME280;38952;51.090;-1.832;2022-07-05T13:19:42;101354.03;;;30.56;28.61
51849;BME280;38952;51.090;-1.832;2022-07-05T13:22:08;101348.94;;;31.29;27.75
51849;BME280;38952;51.090;-1.832;2022-07-05T13:24:34;101358.94;;;32.02;26.28
51849;BME280;38952;51.090;-1.832;2022-07-05T13:27:00;101360.47;;;36.59;23.35
51849;BME280;38952;51.090;-1.832;2022-07-05T13:29:26;101363.63;;;39.53;19.31
51849;BME280;38952;51.090;-1.832;2022-07-05T13:31:52;101359.13;;;38.79;18.04
51849;BME280;38952;51.090;-1.832;2022-07-05T13:34:17;101363.16;;;35.94;20.88
51849;BME280;38952;51.090;-1.832;2022-07-05T13:36:43;101363.03;;;34.09;23.33
51849;BME280;38952;51.090;-1.832;2022-07-05T13:39:12;101353.41;;;32.76;24.83
51849;BME280;38952;51.090;-1.832;2022-07-05T13:41:37;101363.03;;;32.08;26.05
51849;BME280;38952;51.090;-1.832;2022-07-05T13:44:03;101356.44;;;31.14;27.30
51849;BME280;38952;51.090;-1.832;2022-07-05T13:46:28;101363.97;;;31.03;27.93
51849;BME280;38952;51.090;-1.832;2022-07-05T13:48:54;101356.09;;;33.42;25.94
51849;BME280;38952;51.090;-1.832;2022-07-05T13:51:20;101362.22;;;33.73;24.51
51849;BME280;38952;51.090;-1.832;2022-07-05T13:53:48;101360.22;;;32.64;25.45
51849;BME280;38952;51.090;-1.832;2022-07-05T13:56:13;101368.50;;;32.35;26.02
51849;BME280;38952;51.090;-1.832;2022-07-05T13:58:39;101361.53;;;31.73;26.45
51849;BME280;38952;51.090;-1.832;2022-07-05T14:01:04;101348.16;;;30.68;27.67
51849;BME280;38952;51.090;-1.832;2022-07-05T14:03:30;101356.47;;;30.31;28.97